Time;durP1;ratioP1;P1;durP2;ratioP2;P2;SDS_P1;SDS_P2;PMS_P1;PMS_P2;Temp;Humidity;BMP_temperature;BMP_pressure;BME280_temperature;BME280_humidity;BME280_pressure;Samples;Min_cycle;Max_cycle;Signal;HPM_P1;HPM_P2
2021/10/07 00:00:38;;;;;;;3.70;2.03;;;;;;;;;;5073680;28;20038;-73
2021/10/07 00:03:22;;;;;;;2.17;1.60;;;;;;;;;;5065667;28;20031;-74
2021/10/07 00:06:07;;;;;;;3.60;1.75;;;;;;;;;;5056262;28;20120;-73
2021/10/07 00:08:52;;;;;;;3.03;2.00;;;;;;;;;;5085366;28;20089;-74
2021/10/07 00:11:36;;;;;;;4.70;1.95;;;;;;;;;;5084354;28;20121;-74
2021/10/07 00:14:20;;;;;;;2.85;1.80;;;;;;;;;;5082390;28;20113;-74
2021/10/07 00:17:05;;;;;;;3.38;1.90;;;;;;;;;;5091412;28;20499;-74
2021/10/07 00:19:50;;;;;;;2.72;1.75;;;;;;;;;;5090871;28;20043;-74
2021/10/07 00:22:34;;;;;;;3.40;1.60;;;;;;;;;;5062247;28;20039;-73
2021/10/07 00:25:19;;;;;;;2.88;1.83;;;;;;;;;;5083041;28;20094;-73
2021/10/07 00:28:11;;;;;;;2.33;1.70;;;;;;;;;;5090745;28;20054;-73
2021/10/07 00:30:58;;;;;;;2.83;1.83;;;;;;;;;;5075919;28;20039;-74
2021/10/07 00:39:40;;;;;;;2.50;1.73;;;;;;;;;;5080676;28;20043;-74
2021/10/07 00:42:24;;;;;;;4.28;1.83;;;;;;;;;;5099062;28;20165;-74
2021/10/07 00:45:09;;;;;;;3.80;1.80;;;;;;;;;;5090311;28;20781;-74
2021/10/07 00:47:54;;;;;;;3.35;2.00;;;;;;;;;;5064887;28;20495;-74
2021/10/07 00:50:39;;;;;;;4.32;2.00;;;;;;;;;;5081227;28;20093;-73
2021/10/07 00:53:23;;;;;;;4.05;2.17;;;;;;;;;;5071499;28;20460;-74
2021/10/07 00:56:08;;;;;;;3.03;2.05;;;;;;;;;;5055543;28;20039;-74
2021/10/07 00:58:52;;;;;;;5.18;1.90;;;;;;;;;;5070247;28;20067;-73
2021/10/07 01:01:37;;;;;;;2.97;2.15;;;;;;;;;;5073659;28;20093;-74
2021/10/07 01:04:22;;;;;;;3.38;2.45;;;;;;;;;;5065188;28;20089;-74
2021/10/07 01:07:06;;;;;;;3.42;2.05;;;;;;;;;;5071345;28;20134;-74
2021/10/07 01:09:51;;;;;;;4.57;1.98;;;;;;;;;;5054990;28;20039;-73
2021/10/07 01:12:35;;;;;;;3.92;2.05;;;;;;;;;;5069446;28;20051;-74
2021/10/07 01:15:20;;;;;;;3.05;2.00;;;;;;;;;;5072438;28;20036;-74
2021/10/07 01:18:05;;;;;;;3.13;1.90;;;;;;;;;;5075241;28;20034;-73
2021/10/07 01:20:49;;;;;;;3.80;2.20;;;;;;;;;;5061635;28;20086;-76
2021/10/07 01:23:33;;;;;;;3.40;1.88;;;;;;;;;;5058958;28;20090;-75
2021/10/07 01:26:19;;;;;;;4.57;2.05;;;;;;;;;;5071071;28;20031;-75
2021/10/07 01:29:04;;;;;;;2.72;2.00;;;;;;;;;;5070809;28;20452;-75
2021/10/07 01:31:48;;;;;;;2.72;2.10;;;;;;;;;;5085141;28;20058;-74
2021/10/07 01:34:33;;;;;;;3.30;1.95;;;;;;;;;;5067652;28;20043;-74
2021/10/07 01:37:18;;;;;;;4.63;2.05;;;;;;;;;;5070754;28;20413;-74
2021/10/07 01:40:04;;;;;;;3.28;1.90;;;;;;;;;;5057923;28;20073;-74
2021/10/07 01:42:48;;;;;;;4.47;2.03;;;;;;;;;;5069563;28;20050;-74
2021/10/07 01:45:33;;;;;;;3.63;1.90;;;;;;;;;;5081426;28;20047;-74
2021/10/07 01:48:17;;;;;;;2.83;1.92;;;;;;;;;;5071532;28;20206;-74
2021/10/07 01:51:02;;;;;;;2.80;1.80;;;;;;;;;;5074936;28;20034;-74
2021/10/07 01:53:46;;;;;;;4.03;2.22;;;;;;;;;;5089234;28;20097;-74
2021/10/07 01:56:31;;;;;;;2.47;1.63;;;;;;;;;;5081080;28;20464;-74
2021/10/07 01:59:16;;;;;;;3.17;1.70;;;;;;;;;;5075728;28;20141;-74
2021/10/07 02:02:00;;;;;;;3.35;2.22;;;;;;;;;;5074643;28;20043;-74
2021/10/07 02:04:45;;;;;;;3.92;1.80;;;;;;;;;;5071297;28;20086;-74
2021/10/07 02:07:30;;;;;;;3.35;1.70;;;;;;;;;;5071124;28;20409;-74
2021/10/07 02:10:15;;;;;;;3.00;1.63;;;;;;;;;;5069947;28;20035;-74
2021/10/07 02:12:59;;;;;;;2.80;1.60;;;;;;;;;;5086059;28;20409;-74
2021/10/07 02:15:44;;;;;;;2.90;1.48;;;;;;;;;;5070983;28;20035;-74
2021/10/07 02:18:28;;;;;;;2.88;1.52;;;;;;;;;;5071018;28;20101;-74
2021/10/07 02:21:13;;;;;;;2.20;1.20;;;;;;;;;;5054917;28;20067;-74
2021/10/07 02:23:57;;;;;;;2.42;1.35;;;;;;;;;;5068781;28;20098;-74
2021/10/07 02:26:42;;;;;;;2.28;1.20;;;;;;;;;;5069937;28;20209;-74
2021/10/07 02:29:27;;;;;;;2.88;1.70;;;;;;;;;;5064932;28;20039;-74
2021/10/07 02:32:13;;;;;;;1.90;1.10;;;;;;;;;;5076511;28;20050;-74
2021/10/07 02:34:58;;;;;;;1.58;1.20;;;;;;;;;;5089658;28;20038;-74
2021/10/07 02:37:45;;;;;;;2.28;1.30;;;;;;;;;;5080083;28;20079;-74
2021/10/07 02:40:31;;;;;;;3.53;1.30;;;;;;;;;;5077799;28;20404;-74
2021/10/07 02:43:16;;;;;;;1.92;1.20;;;;;;;;;;5064139;28;20173;-74
2021/10/07 02:46:00;;;;;;;1.58;0.95;;;;;;;;;;5064816;28;20567;-74
2021/10/07 02:48:45;;;;;;;3.50;1.05;;;;;;;;;;5056057;28;20048;-74
2021/10/07 02:51:30;;;;;;;1.70;1.00;;;;;;;;;;5069329;28;20531;-74
2021/10/07 02:54:14;;;;;;;1.83;0.98;;;;;;;;;;5074339;28;20078;-74
2021/10/07 02:56:59;;;;;;;2.05;1.10;;;;;;;;;;5074245;28;20117;-74
2021/10/07 02:59:43;;;;;;;2.28;1.10;;;;;;;;;;5079373;28;20043;-74
2021/10/07 03:02:28;;;;;;;2.53;1.00;;;;;;;;;;5090275;28;20085;-74
2021/10/07 03:05:13;;;;;;;1.30;1.02;;;;;;;;;;5061514;28;20802;-74
2021/10/07 03:07:58;;;;;;;1.75;1.10;;;;;;;;;;5065100;28;20492;-74
2021/10/07 03:10:43;;;;;;;2.03;0.90;;;;;;;;;;5068446;28;20119;-74
2021/10/07 03:13:28;;;;;;;1.25;0.90;;;;;;;;;;5069147;28;20050;-74
2021/10/07 03:16:13;;;;;;;2.35;1.00;;;;;;;;;;5061066;28;20093;-74
2021/10/07 03:18:57;;;;;;;2.22;1.10;;;;;;;;;;5075966;28;20051;-74
2021/10/07 03:21:42;;;;;;;1.60;0.90;;;;;;;;;;5090119;28;20035;-74
2021/10/07 03:24:27;;;;;;;3.28;1.50;;;;;;;;;;5060621;28;20048;-74
2021/10/07 03:27:11;;;;;;;1.80;1.00;;;;;;;;;;5066839;28;20067;-74
2021/10/07 03:29:56;;;;;;;1.60;0.90;;;;;;;;;;5092978;28;20039;-75
2021/10/07 03:32:40;;;;;;;1.80;1.00;;;;;;;;;;5079338;28;20412;-74
2021/10/07 03:35:25;;;;;;;1.38;0.90;;;;;;;;;;5079998;28;20503;-74
2021/10/07 03:38:10;;;;;;;3.95;0.90;;;;;;;;;;5077435;28;20055;-74
2021/10/07 03:40:54;;;;;;;1.25;0.82;;;;;;;;;;5080028;28;20549;-74
2021/10/07 03:43:39;;;;;;;2.60;0.90;;;;;;;;;;5060936;28;20036;-74
2021/10/07 03:46:23;;;;;;;1.20;0.80;;;;;;;;;;5081142;28;20603;-74
2021/10/07 03:49:08;;;;;;;1.40;0.90;;;;;;;;;;5101481;28;20034;-74
2021/10/07 03:51:52;;;;;;;1.48;0.70;;;;;;;;;;5085595;28;20413;-74
2021/10/07 03:54:37;;;;;;;2.40;0.90;;;;;;;;;;5071834;28;20515;-74
2021/10/07 03:57:23;;;;;;;1.35;0.77;;;;;;;;;;5078749;28;20109;-74
2021/10/07 04:00:08;;;;;;;1.38;0.70;;;;;;;;;;5075113;28;20036;-74
2021/10/07 04:02:52;;;;;;;1.15;0.80;;;;;;;;;;5084267;28;20039;-74
2021/10/07 04:05:37;;;;;;;1.95;0.80;;;;;;;;;;5084552;28;20397;-74
2021/10/07 04:08:22;;;;;;;0.98;0.65;;;;;;;;;;5089912;28;20069;-74
2021/10/07 04:11:06;;;;;;;2.25;0.80;;;;;;;;;;5056524;28;20109;-74
2021/10/07 04:13:51;;;;;;;1.23;0.80;;;;;;;;;;5060040;28;20496;-74
2021/10/07 04:16:35;;;;;;;2.03;0.70;;;;;;;;;;5077007;28;20053;-74
2021/10/07 04:19:20;;;;;;;0.98;0.75;;;;;;;;;;5079069;28;20078;-73
2021/10/07 04:22:05;;;;;;;0.70;0.50;;;;;;;;;;5073646;28;20098;-74
2021/10/07 04:24:49;;;;;;;0.90;0.60;;;;;;;;;;5076869;28;20039;-74
2021/10/07 04:27:34;;;;;;;1.08;0.50;;;;;;;;;;5092054;28;20077;-74
2021/10/07 04:30:18;;;;;;;0.80;0.57;;;;;;;;;;5062003;28;20467;-74
2021/10/07 04:33:03;;;;;;;1.55;0.70;;;;;;;;;;5083538;28;20059;-74
2021/10/07 04:35:48;;;;;;;0.85;0.60;;;;;;;;;;5076668;28;20094;-74
2021/10/07 04:38:34;;;;;;;1.17;0.68;;;;;;;;;;5092268;28;20042;-74
2021/10/07 04:41:18;;;;;;;1.42;0.80;;;;;;;;;;5076292;28;20736;-74
2021/10/07 04:44:03;;;;;;;0.80;0.60;;;;;;;;;;5076504;28;20054;-74
2021/10/07 04:46:48;;;;;;;1.10;0.70;;;;;;;;;;5056310;28;20471;-74
2021/10/07 04:49:32;;;;;;;0.80;0.60;;;;;;;;;;5064402;28;20077;-74
2021/10/07 04:52:17;;;;;;;1.20;0.80;;;;;;;;;;5087528;28;20067;-74
2021/10/07 04:55:01;;;;;;;0.68;0.55;;;;;;;;;;5075389;28;20077;-74
2021/10/07 04:57:46;;;;;;;0.93;0.60;;;;;;;;;;5071468;28;20691;-74
2021/10/07 05:00:30;;;;;;;0.75;0.52;;;;;;;;;;5083779;28;20047;-74
2021/10/07 05:03:15;;;;;;;0.55;0.50;;;;;;;;;;5085491;28;20166;-74
2021/10/07 05:05:59;;;;;;;0.77;0.50;;;;;;;;;;5072500;28;20048;-74
2021/10/07 05:08:44;;;;;;;0.98;0.70;;;;;;;;;;5090462;28;20085;-74
2021/10/07 05:11:29;;;;;;;1.33;0.55;;;;;;;;;;5073786;28;20051;-74
2021/10/07 05:14:13;;;;;;;0.55;0.45;;;;;;;;;;5088920;28;20058;-74
2021/10/07 05:16:58;;;;;;;0.52;0.50;;;;;;;;;;5090576;28;20089;-74
2021/10/07 05:19:43;;;;;;;0.75;0.50;;;;;;;;;;5079206;28;20104;-74
2021/10/07 05:22:27;;;;;;;0.60;0.50;;;;;;;;;;5073587;28;20039;-74
2021/10/07 05:25:12;;;;;;;1.00;0.70;;;;;;;;;;5071625;28;20451;-74
2021/10/07 05:27:57;;;;;;;1.05;0.60;;;;;;;;;;5074668;28;20035;-74
2021/10/07 05:30:41;;;;;;;0.73;0.57;;;;;;;;;;5075634;28;20129;-75
2021/10/07 05:33:26;;;;;;;1.15;0.60;;;;;;;;;;5070110;28;20055;-74
2021/10/07 05:36:10;;;;;;;1.13;0.60;;;;;;;;;;5083365;28;20044;-74
2021/10/07 05:38:55;;;;;;;1.08;0.60;;;;;;;;;;5075699;28;20038;-74
2021/10/07 05:41:39;;;;;;;0.50;0.40;;;;;;;;;;5060356;28;20103;-74
2021/10/07 05:44:24;;;;;;;0.88;0.60;;;;;;;;;;5068952;28;20039;-74
2021/10/07 05:47:08;;;;;;;2.05;0.80;;;;;;;;;;5074496;28;20520;-74
2021/10/07 05:49:53;;;;;;;0.75;0.50;;;;;;;;;;5058299;28;20051;-74
2021/10/07 05:52:37;;;;;;;0.47;0.40;;;;;;;;;;5089454;28;20100;-74
2021/10/07 05:55:22;;;;;;;0.47;0.40;;;;;;;;;;5072761;28;20074;-74
2021/10/07 05:58:06;;;;;;;0.93;0.60;;;;;;;;;;5074061;28;20700;-74
2021/10/07 06:00:51;;;;;;;0.60;0.50;;;;;;;;;;5072385;28;20077;-74
2021/10/07 06:03:35;;;;;;;0.93;0.50;;;;;;;;;;5080861;28;20511;-74
2021/10/07 06:06:20;;;;;;;0.70;0.57;;;;;;;;;;5083506;28;20030;-74
2021/10/07 06:09:07;;;;;;;0.80;0.55;;;;;;;;;;5059340;28;20047;-74
2021/10/07 06:11:51;;;;;;;0.95;0.60;;;;;;;;;;5054378;28;20043;-74
2021/10/07 06:14:36;;;;;;;0.85;0.60;;;;;;;;;;5084158;28;20043;-74
2021/10/07 06:17:20;;;;;;;0.90;0.60;;;;;;;;;;5089433;28;20136;-74
2021/10/07 06:20:16;;;;;;;0.73;0.50;;;;;;;;;;5073749;28;20419;-74
2021/10/07 06:23:04;;;;;;;0.90;0.60;;;;;;;;;;5088964;28;20059;-74
2021/10/07 06:25:49;;;;;;;0.88;0.55;;;;;;;;;;5089319;28;20043;-74
2021/10/07 06:28:33;;;;;;;1.00;0.70;;;;;;;;;;5067229;28;20800;-74
2021/10/07 06:31:18;;;;;;;1.45;0.70;;;;;;;;;;5066976;28;20046;-74
2021/10/07 06:34:02;;;;;;;1.38;0.73;;;;;;;;;;5059600;28;20055;-74
2021/10/07 06:36:47;;;;;;;1.08;0.65;;;;;;;;;;5073228;28;20565;-74
2021/10/07 06:39:32;;;;;;;1.17;0.70;;;;;;;;;;5088608;28;20382;-73
2021/10/07 06:42:16;;;;;;;1.60;0.52;;;;;;;;;;5088848;28;20066;-74
2021/10/07 06:45:04;;;;;;;1.35;0.85;;;;;;;;;;5087562;28;20504;-74
2021/10/07 06:47:49;;;;;;;0.60;0.60;;;;;;;;;;5067878;28;20081;-75
2021/10/07 06:50:34;;;;;;;0.90;0.70;;;;;;;;;;5079490;28;20039;-75
2021/10/07 06:53:19;;;;;;;1.10;0.70;;;;;;;;;;5084773;28;20046;-75
2021/10/07 06:56:04;;;;;;;1.50;0.80;;;;;;;;;;5088533;28;20113;-76
2021/10/07 06:58:52;;;;;;;1.10;0.77;;;;;;;;;;5088071;28;20039;-75
2021/10/07 07:01:37;;;;;;;1.02;0.70;;;;;;;;;;5059543;28;20487;-76
2021/10/07 07:04:21;;;;;;;1.40;0.73;;;;;;;;;;5088446;28;20046;-76
2021/10/07 07:07:06;;;;;;;1.23;0.80;;;;;;;;;;5072948;28;20059;-75
2021/10/07 07:09:50;;;;;;;2.10;0.88;;;;;;;;;;5072044;28;20123;-76
2021/10/07 07:12:35;;;;;;;1.13;0.80;;;;;;;;;;5069422;28;20059;-76
2021/10/07 07:15:20;;;;;;;1.35;0.90;;;;;;;;;;5073273;28;20695;-75
2021/10/07 07:18:04;;;;;;;1.38;0.80;;;;;;;;;;5072878;28;20154;-75
2021/10/07 07:20:49;;;;;;;2.25;1.00;;;;;;;;;;5053898;28;20516;-75
2021/10/07 07:23:34;;;;;;;1.98;0.68;;;;;;;;;;5081484;28;20067;-75
2021/10/07 07:26:19;;;;;;;2.17;0.90;;;;;;;;;;5062518;28;20042;-75
2021/10/07 07:29:03;;;;;;;2.10;1.00;;;;;;;;;;5086820;28;20115;-75
2021/10/07 07:31:48;;;;;;;1.80;0.73;;;;;;;;;;5058547;28;20066;-75
2021/10/07 07:34:33;;;;;;;1.42;0.90;;;;;;;;;;5072018;28;20043;-75
2021/10/07 07:37:18;;;;;;;1.02;0.80;;;;;;;;;;5060822;28;20038;-75
2021/10/07 07:40:03;;;;;;;1.00;0.70;;;;;;;;;;5069787;28;20736;-75
2021/10/07 07:42:47;;;;;;;1.50;0.90;;;;;;;;;;5074328;28;20043;-76
2021/10/07 07:45:32;;;;;;;1.30;0.90;;;;;;;;;;5061046;28;20031;-75
2021/10/07 07:48:16;;;;;;;1.00;0.80;;;;;;;;;;5091500;28;20534;-76
2021/10/07 07:51:01;;;;;;;3.30;0.95;;;;;;;;;;5091111;28;20504;-76
2021/10/07 07:53:46;;;;;;;1.40;0.80;;;;;;;;;;5067489;28;20056;-76
2021/10/07 07:56:31;;;;;;;2.08;1.00;;;;;;;;;;5050907;28;20093;-76
2021/10/07 07:59:15;;;;;;;2.38;0.80;;;;;;;;;;5058002;28;20043;-76
2021/10/07 08:02:00;;;;;;;3.05;0.80;;;;;;;;;;5090567;28;20046;-76
2021/10/07 08:04:46;;;;;;;2.35;1.00;;;;;;;;;;5059125;28;20043;-76
2021/10/07 08:07:31;;;;;;;1.58;0.80;;;;;;;;;;5081008;28;20504;-75
2021/10/07 08:10:15;;;;;;;1.08;0.80;;;;;;;;;;5093410;28;20544;-75
2021/10/07 08:13:00;;;;;;;1.65;0.98;;;;;;;;;;5081337;28;20127;-75
2021/10/07 08:15:45;;;;;;;2.63;0.90;;;;;;;;;;5087496;28;20114;-75
2021/10/07 08:18:30;;;;;;;1.58;0.93;;;;;;;;;;5071074;28;20153;-75
2021/10/07 08:21:15;;;;;;;1.38;0.70;;;;;;;;;;5076130;28;20050;-76
2021/10/07 08:24:05;;;;;;;1.85;0.90;;;;;;;;;;5079169;28;20081;-75
2021/10/07 08:26:50;;;;;;;1.58;0.88;;;;;;;;;;5074319;28;20067;-76
2021/10/07 08:29:34;;;;;;;1.67;0.82;;;;;;;;;;5083528;28;20039;-75
2021/10/07 08:32:19;;;;;;;1.52;0.82;;;;;;;;;;5059960;28;20070;-75
2021/10/07 08:35:04;;;;;;;1.20;0.70;;;;;;;;;;5066896;28;20039;-76
2021/10/07 08:37:48;;;;;;;2.28;0.73;;;;;;;;;;5060305;28;20038;-75
2021/10/07 08:40:33;;;;;;;1.88;0.88;;;;;;;;;;5071221;28;20477;-75
2021/10/07 08:43:17;;;;;;;1.58;0.80;;;;;;;;;;5085257;28;20152;-76
2021/10/07 08:46:11;;;;;;;1.30;0.70;;;;;;;;;;5069952;28;20039;-76
2021/10/07 08:48:56;;;;;;;1.67;0.90;;;;;;;;;;5073373;28;20030;-76
2021/10/07 08:51:41;;;;;;;1.58;0.80;;;;;;;;;;5074754;28;20055;-76
2021/10/07 08:54:26;;;;;;;2.45;0.80;;;;;;;;;;5088947;28;20047;-76
2021/10/07 08:57:11;;;;;;;1.17;0.80;;;;;;;;;;5089127;28;20035;-76
2021/10/07 08:59:55;;;;;;;1.98;0.88;;;;;;;;;;5074548;28;20074;-76
2021/10/07 09:02:40;;;;;;;1.77;0.75;;;;;;;;;;5089393;28;20039;-77
2021/10/07 09:05:26;;;;;;;2.03;0.98;;;;;;;;;;5090583;28;20118;-76
2021/10/07 09:08:13;;;;;;;1.75;0.80;;;;;;;;;;5073856;28;20043;-76
2021/10/07 09:10:57;;;;;;;1.52;0.77;;;;;;;;;;5057120;28;20047;-76
2021/10/07 09:13:42;;;;;;;2.08;0.80;;;;;;;;;;5090032;28;20078;-76
2021/10/07 09:16:29;;;;;;;1.05;0.60;;;;;;;;;;5073800;28;20063;-76
2021/10/07 09:19:14;;;;;;;1.67;1.02;;;;;;;;;;5059251;28;20123;-76
2021/10/07 09:22:00;;;;;;;1.85;0.90;;;;;;;;;;5074625;28;20558;-76
2021/10/07 09:24:46;;;;;;;1.90;0.90;;;;;;;;;;5074975;28;20042;-75
2021/10/07 09:27:34;;;;;;;1.92;0.80;;;;;;;;;;5060797;28;20488;-76
2021/10/07 09:30:18;;;;;;;1.10;0.80;;;;;;;;;;5090220;28;20051;-76
2021/10/07 09:33:03;;;;;;;2.10;0.90;;;;;;;;;;5074278;28;20531;-76
2021/10/07 09:35:47;;;;;;;1.30;0.80;;;;;;;;;;5073558;28;20046;-76
2021/10/07 09:38:35;;;;;;;0.77;0.60;;;;;;;;;;5090341;28;20046;-75
2021/10/07 09:41:20;;;;;;;1.50;0.73;;;;;;;;;;5074320;28;20047;-75
2021/10/07 09:44:06;;;;;;;3.28;0.98;;;;;;;;;;5087326;28;20162;-75
2021/10/07 09:46:51;;;;;;;3.50;0.80;;;;;;;;;;5089463;28;20059;-75
2021/10/07 09:49:36;;;;;;;3.50;0.90;;;;;;;;;;5089862;28;20396;-75
2021/10/07 09:52:20;;;;;;;1.80;1.00;;;;;;;;;;5074375;28;20059;-75
2021/10/07 09:55:24;;;;;;;2.88;0.95;;;;;;;;;;5089261;28;20096;-75
2021/10/07 09:58:08;;;;;;;1.45;0.90;;;;;;;;;;5060354;28;20039;-75
2021/10/07 10:00:54;;;;;;;2.08;0.80;;;;;;;;;;5090049;28;20439;-75
2021/10/07 10:03:39;;;;;;;1.25;0.70;;;;;;;;;;5060249;28;20070;-76
2021/10/07 10:06:23;;;;;;;1.20;0.70;;;;;;;;;;5057224;28;20392;-76
2021/10/07 10:09:07;;;;;;;0.70;0.60;;;;;;;;;;5054556;28;20110;-76
2021/10/07 10:11:52;;;;;;;1.35;0.70;;;;;;;;;;5059713;28;20047;-75
2021/10/07 10:14:36;;;;;;;1.30;0.73;;;;;;;;;;5074091;28;20112;-76
2021/10/07 10:17:21;;;;;;;1.27;0.70;;;;;;;;;;5074025;28;20075;-76
2021/10/07 10:20:07;;;;;;;1.60;0.80;;;;;;;;;;5073280;28;20089;-75
2021/10/07 10:22:54;;;;;;;1.20;0.90;;;;;;;;;;5073984;28;20101;-75
2021/10/07 10:25:55;;;;;;;1.65;0.80;;;;;;;;;;5074036;28;20773;-75
2021/10/07 10:28:45;;;;;;;1.15;0.70;;;;;;;;;;5089171;28;20092;-76
2021/10/07 10:31:34;;;;;;;2.45;0.80;;;;;;;;;;5089015;28;20038;-74
2021/10/07 10:34:18;;;;;;;1.85;0.90;;;;;;;;;;5073867;28;20152;-73
2021/10/07 10:37:04;;;;;;;1.60;0.90;;;;;;;;;;5074278;28;20042;-73
2021/10/07 10:39:49;;;;;;;1.55;0.80;;;;;;;;;;5088717;28;20047;-73
2021/10/07 10:42:34;;;;;;;1.88;0.70;;;;;;;;;;5073369;28;20050;-76
2021/10/07 10:45:18;;;;;;;2.15;0.70;;;;;;;;;;5073698;28;20372;-75
2021/10/07 10:48:02;;;;;;;0.98;0.70;;;;;;;;;;5073662;28;20050;-76
2021/10/07 10:50:59;;;;;;;1.63;1.00;;;;;;;;;;5088732;28;20039;-75
2021/10/07 10:54:03;;;;;;;3.10;1.10;;;;;;;;;;5073425;28;20101;-76
2021/10/07 10:56:57;;;;;;;3.92;0.93;;;;;;;;;;5073402;28;20054;-75
2021/10/07 10:59:42;;;;;;;1.58;0.80;;;;;;;;;;5088950;28;20111;-76
2021/10/07 11:02:27;;;;;;;1.70;0.90;;;;;;;;;;5088209;28;20085;-75
2021/10/07 11:05:12;;;;;;;1.73;0.98;;;;;;;;;;5088830;28;20042;-74
2021/10/07 11:08:09;;;;;;;2.28;0.80;;;;;;;;;;5088814;28;20039;-75
2021/10/07 11:10:54;;;;;;;1.50;0.80;;;;;;;;;;5073092;28;20043;-74
2021/10/07 11:13:46;;;;;;;2.42;1.10;;;;;;;;;;5088412;28;20086;-74
2021/10/07 11:16:32;;;;;;;2.65;0.88;;;;;;;;;;5073128;28;20131;-74
2021/10/07 11:19:17;;;;;;;1.73;0.82;;;;;;;;;;5092744;28;20173;-74
2021/10/07 11:22:08;;;;;;;1.65;0.95;;;;;;;;;;5077067;28;20043;-74
2021/10/07 11:24:54;;;;;;;2.30;0.90;;;;;;;;;;5057066;28;20066;-74
2021/10/07 11:27:39;;;;;;;1.00;0.80;;;;;;;;;;5056540;28;20039;-74
2021/10/07 11:30:24;;;;;;;2.65;1.00;;;;;;;;;;5071715;28;20136;-74
2021/10/07 11:33:09;;;;;;;1.48;0.90;;;;;;;;;;5055674;28;20059;-74
2021/10/07 11:35:58;;;;;;;2.45;0.88;;;;;;;;;;5042237;28;20185;-74
2021/10/07 11:38:43;;;;;;;1.08;0.80;;;;;;;;;;5056572;28;20496;-74
2021/10/07 11:41:35;;;;;;;2.38;1.00;;;;;;;;;;5071423;28;20089;-75
2021/10/07 11:44:20;;;;;;;1.58;1.00;;;;;;;;;;5073317;28;20125;-74
2021/10/07 11:47:05;;;;;;;2.53;0.80;;;;;;;;;;5091544;28;20046;-74
2021/10/07 11:49:49;;;;;;;2.80;0.90;;;;;;;;;;5091519;28;20047;-74
2021/10/07 11:52:34;;;;;;;2.38;0.90;;;;;;;;;;5075977;28;20121;-74
2021/10/07 11:55:19;;;;;;;1.65;0.80;;;;;;;;;;5075709;28;20116;-76
2021/10/07 11:58:03;;;;;;;2.45;0.98;;;;;;;;;;5062638;28;20050;-76
2021/10/07 12:00:49;;;;;;;1.83;0.90;;;;;;;;;;5076649;28;20043;-76
2021/10/07 12:03:34;;;;;;;2.50;0.90;;;;;;;;;;5062052;28;20655;-75
2021/10/07 12:06:19;;;;;;;1.63;0.90;;;;;;;;;;5062438;28;20047;-75
2021/10/07 12:09:04;;;;;;;2.50;0.82;;;;;;;;;;5076311;28;20042;-76
2021/10/07 12:11:49;;;;;;;2.58;0.85;;;;;;;;;;5062135;28;20523;-76
2021/10/07 12:14:34;;;;;;;3.42;1.00;;;;;;;;;;5091375;28;20157;-75
2021/10/07 12:17:20;;;;;;;3.53;1.00;;;;;;;;;;5091237;28;20035;-75
2021/10/07 12:20:05;;;;;;;1.58;0.85;;;;;;;;;;5070204;28;20055;-75
2021/10/07 12:22:50;;;;;;;1.98;0.90;;;;;;;;;;5071201;28;20079;-76
2021/10/07 12:25:42;;;;;;;3.88;1.20;;;;;;;;;;5055964;28;20050;-76
2021/10/07 12:28:26;;;;;;;;;;;;;;;;;;5065453;28;20166;-76
2021/10/07 12:31:11;;;;;;;3.33;1.30;;;;;;;;;;5091131;28;19953;-76
2021/10/07 12:34:00;;;;;;;1.52;0.73;;;;;;;;;;5091182;28;20130;-76
2021/10/07 12:36:46;;;;;;;2.33;0.90;;;;;;;;;;5075751;28;20067;-76
2021/10/07 12:39:35;;;;;;;3.40;1.00;;;;;;;;;;5075587;28;20491;-76
2021/10/07 12:42:20;;;;;;;3.25;1.00;;;;;;;;;;5075865;28;20412;-76
2021/10/07 12:45:05;;;;;;;2.92;1.40;;;;;;;;;;5075929;28;20047;-75
2021/10/07 12:47:58;;;;;;;2.40;1.15;;;;;;;;;;5075854;28;20131;-75
2021/10/07 12:50:43;;;;;;;4.32;1.20;;;;;;;;;;5090493;28;20062;-75
2021/10/07 12:53:36;;;;;;;2.47;1.20;;;;;;;;;;5075400;28;20814;-75
2021/10/07 12:56:30;;;;;;;2.38;0.80;;;;;;;;;;5090988;28;20051;-75
2021/10/07 12:59:14;;;;;;;3.25;1.10;;;;;;;;;;5062253;28;20047;-75
2021/10/07 13:02:01;;;;;;;2.53;1.25;;;;;;;;;;5090329;28;20043;-75
2021/10/07 13:04:46;;;;;;;2.22;1.05;;;;;;;;;;5075789;28;20155;-75
2021/10/07 13:07:30;;;;;;;2.63;1.17;;;;;;;;;;5090724;28;20120;-75
2021/10/07 13:10:15;;;;;;;2.92;1.35;;;;;;;;;;5075635;28;20046;-75
2021/10/07 13:13:00;;;;;;;3.85;1.10;;;;;;;;;;5054897;28;20854;-75
2021/10/07 13:15:45;;;;;;;2.40;1.10;;;;;;;;;;5070375;28;20086;-75
2021/10/07 13:18:29;;;;;;;4.35;1.20;;;;;;;;;;5060300;28;20046;-75
2021/10/07 13:21:14;;;;;;;1.98;1.30;;;;;;;;;;5071971;28;20043;-77
2021/10/07 13:24:04;;;;;;;4.07;1.10;;;;;;;;;;5068715;28;20066;-76
2021/10/07 13:26:58;;;;;;;3.55;1.35;;;;;;;;;;5074678;28;20054;-75
2021/10/07 13:29:43;;;;;;;3.53;1.30;;;;;;;;;;5069538;28;20519;-75
2021/10/07 13:32:27;;;;;;;2.83;1.20;;;;;;;;;;5071378;28;20507;-75
2021/10/07 13:35:12;;;;;;;3.33;1.35;;;;;;;;;;5056481;28;20625;-75
2021/10/07 13:37:57;;;;;;;3.03;1.20;;;;;;;;;;5070822;28;20131;-76
2021/10/07 13:40:41;;;;;;;2.85;1.05;;;;;;;;;;5070224;28;20039;-76
2021/10/07 13:43:32;;;;;;;3.63;1.23;;;;;;;;;;5084865;28;20074;-76
2021/10/07 13:46:17;;;;;;;4.35;1.30;;;;;;;;;;5086405;28;20047;-76
2021/10/07 13:49:01;;;;;;;4.07;1.20;;;;;;;;;;5087186;28;20154;-75
2021/10/07 13:51:46;;;;;;;2.75;1.13;;;;;;;;;;5085280;28;20459;-76
2021/10/07 13:54:30;;;;;;;3.78;1.30;;;;;;;;;;5071839;28;20075;-75
2021/10/07 13:57:15;;;;;;;3.72;1.13;;;;;;;;;;5071563;28;20047;-75
2021/10/07 13:59:59;;;;;;;2.92;1.20;;;;;;;;;;5085482;28;20101;-76
2021/10/07 14:02:44;;;;;;;4.10;1.10;;;;;;;;;;5087558;28;20093;-76
2021/10/07 14:05:34;;;;;;;3.00;1.23;;;;;;;;;;5086721;28;20034;-75
2021/10/07 14:08:18;;;;;;;4.78;1.42;;;;;;;;;;5086803;28;20527;-76
2021/10/07 14:11:06;;;;;;;3.85;1.40;;;;;;;;;;5054774;28;20081;-78
2021/10/07 14:13:51;;;;;;;3.70;1.20;;;;;;;;;;5071085;28;20093;-76
2021/10/07 14:16:36;;;;;;;4.82;1.40;;;;;;;;;;5054393;28;20082;-76
2021/10/07 14:19:20;;;;;;;4.57;1.10;;;;;;;;;;5085844;28;20089;-76
2021/10/07 14:22:05;;;;;;;4.13;1.17;;;;;;;;;;5084243;28;20089;-76
2021/10/07 14:24:50;;;;;;;4.80;1.20;;;;;;;;;;5055477;28;20055;-76
2021/10/07 14:27:34;;;;;;;2.83;1.00;;;;;;;;;;5086506;28;20085;-76
2021/10/07 14:30:19;;;;;;;3.03;1.00;;;;;;;;;;5056149;28;20038;-76
2021/10/07 14:33:04;;;;;;;4.55;1.40;;;;;;;;;;5064377;28;20156;-76
2021/10/07 14:35:49;;;;;;;2.83;1.10;;;;;;;;;;5073158;28;20070;-76
2021/10/07 14:38:33;;;;;;;2.25;1.13;;;;;;;;;;5073191;28;20615;-76
2021/10/07 14:41:18;;;;;;;2.65;1.05;;;;;;;;;;5067022;28;20080;-75
2021/10/07 14:44:02;;;;;;;3.58;1.17;;;;;;;;;;5059847;28;20039;-75
2021/10/07 14:46:47;;;;;;;3.65;1.33;;;;;;;;;;5093007;28;20035;-75
2021/10/07 14:49:31;;;;;;;3.30;1.25;;;;;;;;;;5087224;28;20045;-75
2021/10/07 14:52:16;;;;;;;3.42;1.25;;;;;;;;;;5076368;28;20074;-76
2021/10/07 14:55:00;;;;;;;2.65;1.13;;;;;;;;;;5089968;28;20101;-75
2021/10/07 14:57:45;;;;;;;4.03;1.33;;;;;;;;;;5105338;28;20038;-75
2021/10/07 15:00:30;;;;;;;3.05;1.40;;;;;;;;;;5103163;28;20039;-75
2021/10/07 15:03:14;;;;;;;2.47;1.30;;;;;;;;;;5073165;28;20035;-75
2021/10/07 15:05:59;;;;;;;2.47;1.13;;;;;;;;;;5108231;28;20082;-75
2021/10/07 15:08:43;;;;;;;3.83;1.30;;;;;;;;;;5107567;28;20039;-75
2021/10/07 15:11:28;;;;;;;3.45;1.30;;;;;;;;;;5088950;28;20047;-75
2021/10/07 15:14:12;;;;;;;3.22;1.33;;;;;;;;;;5093313;28;20113;-75
2021/10/07 15:16:57;;;;;;;3.20;1.10;;;;;;;;;;5088400;28;20050;-75
2021/10/07 15:19:41;;;;;;;4.65;1.10;;;;;;;;;;5066918;28;20127;-75
2021/10/07 15:22:26;;;;;;;4.15;1.80;;;;;;;;;;5071613;28;20039;-75
2021/10/07 15:25:10;;;;;;;2.83;1.20;;;;;;;;;;5088145;28;20401;-75
2021/10/07 15:27:55;;;;;;;3.42;1.42;;;;;;;;;;5094113;28;20042;-75
2021/10/07 15:30:39;;;;;;;3.25;1.33;;;;;;;;;;5091124;28;20038;-75
2021/10/07 15:33:24;;;;;;;3.05;1.20;;;;;;;;;;5081998;28;20148;-74
2021/10/07 15:36:08;;;;;;;4.28;1.27;;;;;;;;;;5086447;28;20057;-75
2021/10/07 15:38:53;;;;;;;3.35;1.23;;;;;;;;;;5090182;28;20518;-75
2021/10/07 15:41:37;;;;;;;2.92;1.10;;;;;;;;;;5082537;28;20103;-75
2021/10/07 15:44:22;;;;;;;3.40;1.48;;;;;;;;;;5046893;28;20581;-75
2021/10/07 15:47:07;;;;;;;2.53;1.02;;;;;;;;;;5071496;28;20439;-75
2021/10/07 15:49:52;;;;;;;3.78;1.15;;;;;;;;;;5085052;28;20553;-75
2021/10/07 15:52:37;;;;;;;3.13;1.20;;;;;;;;;;5073566;28;20072;-75
2021/10/07 15:55:22;;;;;;;3.35;1.27;;;;;;;;;;5098413;28;20420;-75
2021/10/07 15:58:07;;;;;;;3.65;1.10;;;;;;;;;;5078645;28;20105;-75
2021/10/07 16:00:53;;;;;;;2.08;0.95;;;;;;;;;;5072369;28;20120;-75
2021/10/07 16:03:37;;;;;;;3.22;1.13;;;;;;;;;;5078442;28;20035;-75
2021/10/07 16:06:22;;;;;;;3.40;1.20;;;;;;;;;;5096997;28;20602;-76
2021/10/07 16:09:06;;;;;;;2.10;1.08;;;;;;;;;;5078469;28;20042;-76
2021/10/07 16:11:51;;;;;;;3.78;1.00;;;;;;;;;;5095100;28;20042;-75
2021/10/07 16:14:36;;;;;;;1.83;1.02;;;;;;;;;;5056321;28;20047;-75
2021/10/07 16:17:21;;;;;;;3.35;1.10;;;;;;;;;;5076739;28;20071;-76
2021/10/07 16:20:06;;;;;;;2.42;0.88;;;;;;;;;;5105859;28;20043;-76
2021/10/07 16:22:51;;;;;;;4.78;1.27;;;;;;;;;;5103618;28;20143;-76
2021/10/07 16:25:35;;;;;;;3.45;1.08;;;;;;;;;;5076193;28;20118;-75
2021/10/07 16:28:21;;;;;;;2.95;1.17;;;;;;;;;;5089614;28;20042;-76
2021/10/07 16:31:06;;;;;;;2.55;0.98;;;;;;;;;;5091357;28;20074;-75
2021/10/07 16:33:51;;;;;;;1.98;1.10;;;;;;;;;;5103880;28;20122;-76
2021/10/07 16:36:36;;;;;;;2.13;1.00;;;;;;;;;;5099079;28;20055;-76